createdAt,value
2019-05-28T00:00:18.497Z,80.09
2019-05-28T00:02:48.110Z,79.93
2019-05-28T00:05:18.162Z,79.76
2019-05-28T00:07:47.701Z,79.65
2019-05-28T00:10:17.752Z,79.69
2019-05-28T00:12:47.664Z,79.93
2019-05-28T00:15:17.842Z,79.64
2019-05-28T00:17:47.389Z,80.45
2019-05-28T00:20:17.454Z,79.72
2019-05-28T00:22:47.008Z,79.91
2019-05-28T00:25:17.332Z,80.34
2019-05-28T00:27:46.884Z,78.64
2019-05-28T00:30:20.269Z,79.75
2019-05-28T00:32:48.667Z,79.94
2019-05-28T00:35:18.857Z,80.07
2019-05-28T00:37:48.783Z,79.46
2019-05-28T00:40:18.545Z,78.22
2019-05-28T00:42:48.087Z,77.67
2019-05-28T00:45:19.467Z,77.69
2019-05-28T00:47:49.431Z,79.09
2019-05-28T00:50:19.746Z,78.21
2019-05-28T00:52:49.362Z,78.11
2019-05-28T00:55:20.079Z,77.96
2019-05-28T00:58:09.322Z,78.87
2019-05-28T01:00:50.784Z,79.14
2019-05-28T01:03:20.515Z,78.62
2019-05-28T01:05:50.151Z,78.69
2019-05-28T01:08:19.684Z,79.41
2019-05-28T01:10:49.574Z,79.75
2019-05-28T03:15:10.427Z,79.83
2019-05-28T03:17:41.713Z,79.99
2019-05-28T03:20:11.579Z,81.59
2019-05-28T03:22:42.321Z,80.45
2019-05-28T03:25:12.432Z,80.50
2019-05-28T03:27:42.050Z,81.48
2019-05-28T03:30:12.138Z,81.29
2019-05-28T03:32:41.849Z,81.63
2019-05-28T03:35:11.696Z,82.44
2019-05-28T03:37:43.215Z,82.25
2019-05-28T03:40:13.942Z,81.87
2019-05-28T03:42:43.548Z,82.86
2019-05-28T03:45:13.159Z,81.47
2019-05-28T03:47:42.734Z,83.03
2019-05-28T03:50:12.420Z,82.39
2019-05-28T03:52:41.992Z,83.01
2019-05-28T03:55:11.806Z,83.08
2019-05-28T03:57:41.383Z,82.26
2019-05-28T04:00:11.361Z,81.91
2019-05-28T04:02:40.929Z,80.51
2019-05-28T04:05:10.476Z,81.02
2019-05-28T04:07:40.046Z,80.90
2019-05-28T04:10:09.995Z,81.05
2019-05-28T04:12:39.568Z,81.28
2019-05-28T04:15:09.330Z,80.90
2019-05-28T04:17:39.221Z,81.31
2019-05-28T04:20:09.278Z,83.67
2019-05-28T04:22:39.482Z,82.89
2019-05-28T04:25:09.632Z,84.55
2019-05-28T04:27:39.205Z,83.54
2019-05-28T04:30:09.284Z,82.96
2019-05-28T04:32:41.000Z,84.15
2019-05-28T04:35:10.272Z,83.74
2019-05-28T04:37:39.834Z,84.26
2019-05-28T04:40:09.593Z,84.29
2019-05-28T04:42:39.162Z,83.15
2019-05-28T04:45:10.419Z,82.54
2019-05-28T04:47:39.979Z,84.13
2019-05-28T04:50:09.770Z,82.67
2019-05-28T04:52:39.412Z,84.50
2019-05-28T04:55:09.471Z,81.16
2019-05-28T04:57:39.039Z,82.17
2019-05-28T05:00:09.798Z,83.26
2019-05-28T05:02:55.513Z,82.28
2019-05-28T05:05:10.982Z,81.62
2019-05-28T05:07:40.836Z,80.21
2019-05-28T05:10:10.862Z,81.84
2019-05-28T05:12:40.434Z,82.13
2019-05-28T05:15:10.773Z,82.72
2019-05-28T05:17:40.444Z,83.57
2019-05-28T05:20:11.196Z,80.60
2019-05-28T05:22:40.767Z,84.92
2019-05-28T05:25:10.453Z,80.80
2019-05-28T05:27:40.027Z,81.51
2019-05-28T05:30:09.697Z,84.37
2019-05-28T05:32:39.272Z,83.03
2019-05-28T05:35:09.220Z,86.33
2019-05-28T05:37:38.856Z,84.05
2019-05-28T05:40:09.123Z,83.37
2019-05-28T05:42:38.828Z,81.87
2019-05-28T05:45:09.491Z,80.65
2019-05-28T05:47:39.203Z,85.06
2019-05-28T05:50:08.891Z,81.67
2019-05-28T05:52:38.456Z,81.62
2019-05-28T05:55:09.451Z,82.58
2019-05-28T05:57:39.093Z,83.98
2019-05-28T06:00:11.683Z,82.90
2019-05-28T06:02:40.796Z,79.93
2019-05-28T06:05:10.777Z,82.43
2019-05-28T06:07:40.419Z,80.17
2019-05-28T06:10:10.605Z,81.86
2019-05-28T06:12:40.145Z,81.19
2019-05-28T06:15:10.020Z,83.37
2019-05-28T06:17:39.641Z,82.29
2019-05-28T06:20:10.087Z,81.61
2019-05-28T06:22:39.641Z,83.87
2019-05-28T06:25:09.652Z,82.87
2019-05-28T06:27:39.198Z,81.01
2019-05-28T06:30:09.516Z,81.44
2019-05-28T06:32:39.105Z,83.77
2019-05-28T06:35:09.510Z,81.89
2019-05-28T06:37:40.034Z,79.98
2019-05-28T06:40:11.415Z,80.40
2019-05-28T06:42:41.757Z,81.15
2019-05-28T06:45:11.741Z,81.53
2019-05-28T06:47:44.982Z,82.54
2019-05-28T06:50:13.254Z,81.32
2019-05-28T06:52:42.804Z,83.47
2019-05-28T06:55:12.816Z,82.37
2019-05-28T06:57:42.356Z,83.14
2019-05-28T07:00:13.052Z,83.73
2019-05-28T07:02:42.607Z,83.21
2019-05-28T07:05:12.379Z,81.94
2019-05-28T07:07:41.926Z,81.03
2019-05-28T07:10:11.706Z,82.12
2019-05-28T07:12:41.249Z,81.40
2019-05-28T07:15:12.058Z,81.14
2019-05-28T07:17:41.661Z,81.33
2019-05-28T07:20:11.551Z,81.48
2019-05-28T07:22:41.801Z,82.59
2019-05-28T07:25:11.800Z,83.94
2019-05-28T07:27:41.416Z,81.89
2019-05-28T07:30:12.329Z,83.63
2019-05-28T07:32:41.958Z,79.88
2019-05-28T07:35:12.557Z,81.68
2019-05-28T07:37:42.122Z,81.87
2019-05-28T07:40:28.232Z,82.16
2019-05-28T07:42:43.846Z,81.92
2019-05-28T07:45:13.640Z,82.14
2019-05-28T07:47:43.175Z,81.77
2019-05-28T07:50:13.084Z,80.82
2019-05-28T07:52:42.644Z,82.35
2019-05-28T07:55:12.645Z,81.63
2019-05-28T07:57:42.198Z,79.52
2019-05-28T08:00:12.503Z,79.16
2019-05-28T08:02:42.314Z,78.37
2019-05-28T08:05:16.888Z,80.34
2019-05-28T08:07:43.770Z,79.72
2019-05-28T08:10:13.665Z,79.92
2019-05-28T08:12:43.283Z,81.32
2019-05-28T08:15:13.228Z,81.31
2019-05-28T08:17:43.142Z,80.08
2019-05-28T08:20:13.372Z,82.14
2019-05-28T08:22:43.405Z,78.47
2019-05-28T08:25:27.515Z,81.99
2019-05-28T08:27:44.574Z,80.74
2019-05-28T08:30:14.858Z,82.36
2019-05-28T08:32:44.489Z,83.66
2019-05-28T08:35:14.200Z,83.74
2019-05-28T08:37:44.657Z,80.98
2019-05-28T08:40:14.652Z,77.91
2019-05-28T08:42:44.393Z,83.00
2019-05-28T08:45:15.476Z,82.59
2019-05-28T08:47:45.047Z,82.81
2019-05-28T08:50:15.191Z,80.27
2019-05-28T08:52:44.748Z,80.62
2019-05-28T08:55:14.756Z,82.32
2019-05-28T08:57:44.307Z,83.05
2019-05-28T09:00:17.493Z,82.11
2019-05-28T09:02:47.041Z,81.38
2019-05-28T09:05:26.528Z,80.36
2019-05-28T09:07:48.045Z,82.12
2019-05-28T09:10:17.615Z,83.23
2019-05-28T09:12:47.161Z,82.50
2019-05-28T09:15:16.801Z,83.40
2019-05-28T09:17:46.361Z,77.71
2019-05-28T09:20:16.611Z,77.89
2019-05-28T09:22:46.193Z,80.48
2019-05-28T09:25:15.802Z,79.06
2019-05-28T09:27:45.402Z,79.91
2019-05-28T09:30:17.492Z,78.85
2019-05-28T09:32:47.169Z,80.33
2019-05-28T09:35:17.305Z,81.69
2019-05-28T09:37:46.954Z,80.50
2019-05-28T09:40:17.415Z,80.86
2019-05-28T09:42:46.992Z,81.30
2019-05-28T09:45:22.864Z,80.47
2019-05-28T09:47:48.483Z,81.38
2019-05-28T09:50:29.830Z,80.82
2019-05-28T09:52:55.073Z,82.25
2019-05-28T09:55:21.204Z,82.86
2019-05-28T09:57:50.780Z,83.58
2019-05-28T10:00:23.317Z,82.43
2019-05-28T10:02:53.174Z,75.80
2019-05-28T10:05:23.124Z,75.03
2019-05-28T10:07:52.698Z,79.22
2019-05-28T10:10:22.555Z,74.47
2019-05-28T10:12:52.123Z,66.24
2019-05-28T10:15:22.206Z,67.29
2019-05-28T10:17:52.130Z,66.12
2019-05-28T10:20:23.759Z,66.64
2019-05-28T10:22:53.332Z,64.33
2019-05-28T10:25:23.107Z,64.11
2019-05-28T10:28:01.115Z,66.26
2019-05-28T10:30:26.611Z,67.04
2019-05-28T10:32:56.184Z,67.07
2019-05-28T10:35:26.341Z,65.08
2019-05-28T10:37:55.984Z,64.43
2019-05-28T10:40:25.667Z,64.85
2019-05-28T10:42:55.243Z,67.54
2019-05-28T10:45:24.924Z,66.48
2019-05-28T10:47:54.603Z,64.92
2019-05-28T10:50:24.298Z,64.38
2019-05-28T10:52:53.942Z,65.29
2019-05-28T10:55:23.488Z,64.52
2019-05-28T10:57:53.207Z,64.24
2019-05-28T11:00:25.932Z,70.30
2019-05-28T11:02:55.504Z,64.46
2019-05-28T11:05:25.294Z,61.72
2019-05-28T11:07:54.859Z,69.31
2019-05-28T11:10:25.123Z,61.00
2019-05-28T11:12:54.749Z,61.05
2019-05-28T11:15:26.619Z,61.08
2019-05-28T11:17:56.226Z,61.13
2019-05-28T11:20:26.294Z,58.95
2019-05-28T11:22:56.135Z,59.98
2019-05-28T11:25:25.899Z,60.00
2019-05-28T11:27:55.469Z,60.59
2019-05-28T11:30:25.274Z,57.11
2019-05-28T11:32:55.057Z,58.28
2019-05-28T11:35:25.167Z,58.17
2019-05-28T11:37:54.733Z,57.09
2019-05-28T11:40:29.825Z,57.33
2019-05-28T11:42:57.790Z,58.07
2019-05-28T11:45:27.814Z,58.50
2019-05-28T11:47:57.718Z,57.11
2019-05-28T11:50:27.354Z,56.07
2019-05-28T11:52:56.934Z,58.40
2019-05-28T11:55:26.680Z,55.61
2019-05-28T11:57:56.528Z,54.98
2019-05-28T12:00:27.588Z,55.26
2019-05-28T12:02:57.297Z,59.50
2019-05-28T12:05:27.363Z,54.92
2019-05-28T12:07:57.000Z,55.59
2019-05-28T12:10:27.564Z,54.57
2019-05-28T12:12:57.108Z,53.47
2019-05-28T12:15:27.385Z,51.39
2019-05-28T12:17:56.947Z,50.33
2019-05-28T12:20:29.331Z,47.98
2019-05-28T12:23:10.347Z,47.95
2019-05-28T12:25:30.391Z,45.68
2019-05-28T12:28:00.023Z,46.88
2019-05-28T12:30:31.326Z,47.26
2019-05-28T12:33:00.873Z,47.31
2019-05-28T12:35:30.632Z,48.76
2019-05-28T12:38:00.278Z,47.10
2019-05-28T12:40:46.516Z,44.40
2019-05-28T12:43:01.345Z,46.74
2019-05-28T12:45:35.363Z,45.04
2019-05-28T12:48:11.785Z,46.80
2019-05-28T12:50:33.503Z,47.25
2019-05-28T12:53:03.365Z,43.64
2019-05-28T12:55:33.006Z,45.11
2019-05-28T12:58:02.568Z,44.81
2019-05-28T13:00:34.345Z,43.13
2019-05-28T13:03:04.160Z,44.11
2019-05-28T13:05:34.438Z,45.14
2019-05-28T13:08:09.274Z,45.40
2019-05-28T13:10:35.278Z,44.73
2019-05-28T13:13:05.168Z,45.39
2019-05-28T13:15:34.910Z,45.47
2019-05-28T13:18:04.834Z,45.50
2019-05-28T13:20:35.036Z,44.18
2019-05-28T13:23:04.661Z,44.83
2019-05-28T13:25:34.296Z,45.25
2019-05-28T13:28:03.916Z,44.62
2019-05-28T13:30:33.558Z,45.97
2019-05-28T13:33:03.157Z,44.71
2019-05-28T13:35:33.006Z,46.16
2019-05-28T13:38:02.553Z,46.12
2019-05-28T13:40:32.196Z,45.72
2019-05-28T13:43:01.785Z,45.69
2019-05-28T13:45:31.437Z,45.08
2019-05-28T13:48:01.092Z,45.69
2019-05-28T13:50:30.697Z,44.50
2019-05-28T13:53:00.253Z,46.29
2019-05-28T13:55:29.889Z,44.11
2019-05-28T13:57:59.446Z,43.67
2019-05-28T14:00:29.740Z,46.71
2019-05-28T14:02:59.846Z,46.10
2019-05-28T14:05:29.417Z,45.39
2019-05-28T14:07:58.963Z,45.15
2019-05-28T14:10:29.058Z,46.82
2019-05-28T14:12:58.623Z,43.42
2019-05-28T14:15:29.292Z,42.32
2019-05-28T14:17:59.033Z,44.64
2019-05-28T14:20:28.837Z,45.91
2019-05-28T14:22:58.487Z,45.04
2019-05-28T14:25:28.397Z,47.26
2019-05-28T14:27:58.024Z,47.99
2019-05-28T14:30:28.038Z,50.64
2019-05-28T14:32:57.588Z,50.03
2019-05-28T14:35:27.206Z,49.33
2019-05-28T14:37:56.877Z,48.02
2019-05-28T14:40:26.740Z,48.33
2019-05-28T14:42:56.720Z,48.94
2019-05-28T14:45:27.655Z,49.01
2019-05-28T14:47:57.835Z,48.80
2019-05-28T14:50:27.457Z,49.06
2019-05-28T14:52:57.029Z,48.63
2019-05-28T14:55:26.643Z,47.23
2019-05-28T14:57:56.307Z,47.13
2019-05-28T15:00:26.548Z,46.29
2019-05-28T15:02:56.122Z,45.29
2019-05-28T15:05:25.675Z,44.16
2019-05-28T15:07:55.248Z,48.16
2019-05-28T15:10:24.935Z,52.55
2019-05-28T15:12:54.869Z,54.74
2019-05-28T15:15:35.431Z,55.92
2019-05-28T15:17:55.850Z,56.10
2019-05-28T15:20:25.540Z,56.49
2019-05-28T15:22:55.116Z,56.60
2019-05-28T15:25:24.842Z,57.50
2019-05-28T15:27:54.551Z,57.97
2019-05-28T15:30:24.714Z,58.07
2019-05-28T15:32:54.295Z,58.36
2019-05-28T15:35:24.442Z,58.70
2019-05-28T15:37:54.535Z,58.62
2019-05-28T15:40:24.150Z,59.74
2019-05-28T15:43:05.483Z,58.09
2019-05-28T15:45:25.003Z,58.55
2019-05-28T15:47:54.571Z,58.89
2019-05-28T15:50:24.282Z,59.36
2019-05-28T15:52:53.954Z,58.42
2019-05-28T15:55:23.639Z,57.97
2019-05-28T15:57:53.198Z,56.76
2019-05-28T16:00:27.297Z,57.98
2019-05-28T16:02:56.871Z,58.29
2019-05-28T16:05:26.421Z,57.75
2019-05-28T16:07:56.063Z,58.23
2019-05-28T16:10:25.610Z,55.37
2019-05-28T16:12:55.252Z,47.42
2019-05-28T16:15:24.876Z,48.51
2019-05-28T16:17:54.446Z,46.45
2019-05-28T16:20:24.064Z,44.86
2019-05-28T16:22:53.639Z,45.74
2019-05-28T16:25:23.190Z,47.18
2019-05-28T16:27:52.921Z,49.21
2019-05-28T16:30:23.032Z,49.47
2019-05-28T16:32:52.827Z,48.18
2019-05-28T16:35:22.935Z,49.13
2019-05-28T16:37:52.963Z,49.20
2019-05-28T16:40:22.640Z,49.36
2019-05-28T16:42:52.280Z,49.76
2019-05-28T16:45:23.259Z,50.00
2019-05-28T16:47:52.824Z,49.03
2019-05-28T16:50:22.436Z,49.23
2019-05-28T16:52:52.078Z,50.18
2019-05-28T16:55:22.249Z,50.62
2019-05-28T16:57:51.866Z,50.70
2019-05-28T17:00:21.633Z,50.40
2019-05-28T17:02:51.299Z,51.22
2019-05-28T17:05:21.136Z,49.35
2019-05-28T17:07:50.761Z,49.25
2019-05-28T17:10:32.210Z,49.36
2019-05-28T17:12:51.876Z,49.63
2019-05-28T17:15:21.800Z,49.99
2019-05-28T17:17:51.785Z,50.15
2019-05-28T17:20:21.508Z,50.10
2019-05-28T17:22:51.222Z,50.40
2019-05-28T17:25:20.901Z,50.43
2019-05-28T17:27:50.483Z,50.51
2019-05-28T17:30:23.920Z,50.35
2019-05-28T17:32:51.454Z,50.73
2019-05-28T17:35:21.004Z,50.73
2019-05-28T17:37:50.583Z,51.20
2019-05-28T17:40:23.204Z,51.58
2019-05-28T17:42:51.501Z,51.20
2019-05-28T17:45:21.296Z,50.65
2019-05-28T17:47:51.027Z,50.27
2019-05-28T17:50:21.033Z,49.82
2019-05-28T17:52:51.834Z,49.66
2019-05-28T17:55:22.169Z,50.77
2019-05-28T17:57:52.018Z,50.03
2019-05-28T18:00:21.570Z,49.64
2019-05-28T18:02:51.137Z,51.17
2019-05-28T18:05:20.689Z,50.52
2019-05-28T18:07:50.254Z,50.04
2019-05-28T18:10:20.201Z,50.34
2019-05-28T18:12:50.095Z,50.20
2019-05-28T18:15:19.647Z,50.68
2019-05-28T18:17:49.221Z,50.84
2019-05-28T18:20:21.338Z,53.24
2019-05-28T18:22:50.969Z,56.31
2019-05-28T18:25:20.880Z,59.08
2019-05-28T18:27:50.485Z,60.46
2019-05-28T18:30:20.343Z,59.93
2019-05-28T18:32:49.921Z,60.74
2019-05-28T18:35:19.481Z,61.04
2019-05-28T18:37:49.061Z,61.22
2019-05-28T18:40:18.866Z,61.30
2019-05-28T18:42:48.495Z,61.78
2019-05-28T18:45:18.290Z,62.92
2019-05-28T18:47:47.879Z,62.15
2019-05-28T18:52:50.238Z,63.90
2019-05-28T18:55:23.316Z,63.71
2019-05-28T18:57:51.868Z,66.25
2019-05-28T19:00:21.497Z,65.01
2019-05-28T19:02:51.089Z,64.37
2019-05-28T19:05:20.844Z,64.02
2019-05-28T19:07:50.416Z,63.99
2019-05-28T19:10:20.442Z,63.50
2019-05-28T19:12:50.011Z,64.07
2019-05-28T19:15:20.427Z,65.41
2019-05-28T19:17:50.005Z,67.17
2019-05-28T19:20:19.690Z,65.40
2019-05-28T19:22:49.263Z,64.97
2019-05-28T19:25:19.256Z,69.33
2019-05-28T19:27:48.826Z,65.50
2019-05-28T19:30:34.176Z,66.98
2019-05-28T19:33:06.475Z,69.88
2019-05-28T19:35:36.102Z,66.18
2019-05-28T19:38:06.329Z,69.65
2019-05-28T19:40:40.400Z,68.10
2019-05-28T19:43:10.162Z,70.70
2019-05-28T19:45:39.740Z,69.50
2019-05-28T19:48:09.371Z,66.62
2019-05-28T19:50:38.958Z,68.80
2019-05-28T19:53:08.605Z,69.37
2019-05-28T19:55:38.136Z,70.97
2019-05-28T19:58:07.751Z,68.32
2019-05-28T20:00:37.262Z,71.92
2019-05-28T20:03:06.779Z,69.30
2019-05-28T20:05:36.448Z,72.57
2019-05-28T20:08:06.014Z,71.80
2019-05-28T20:10:35.562Z,69.98
2019-05-28T20:13:05.212Z,70.55
2019-05-28T20:15:34.806Z,69.32
2019-05-28T20:18:04.465Z,72.85
2019-05-28T20:20:33.997Z,69.83
2019-05-28T20:23:03.507Z,71.65
2019-05-28T20:25:33.181Z,74.37
2019-05-28T20:28:02.690Z,71.24
2019-05-28T20:30:32.297Z,71.24
2019-05-28T20:33:03.121Z,73.19
2019-05-28T20:35:32.913Z,72.86
2019-05-28T20:38:06.367Z,73.59
2019-05-28T20:40:33.679Z,70.17
2019-05-28T20:43:04.080Z,73.24
2019-05-28T20:45:33.865Z,74.66
2019-05-28T20:48:04.493Z,71.81
2019-05-28T20:50:34.151Z,73.23
2019-05-28T20:53:03.724Z,72.08
2019-05-28T20:55:33.254Z,69.28
2019-05-28T20:58:02.765Z,71.15
2019-05-28T21:00:32.437Z,73.54
2019-05-28T21:03:01.951Z,74.46
2019-05-28T21:05:31.480Z,69.85
2019-05-28T21:08:00.995Z,73.20
2019-05-28T21:10:30.700Z,71.95
2019-05-28T21:13:00.541Z,69.32
2019-05-28T21:15:30.350Z,72.88
2019-05-28T21:18:00.109Z,73.76
2019-05-28T21:20:30.089Z,69.51
2019-05-28T21:23:00.355Z,71.81
2019-05-28T21:25:30.948Z,70.55
2019-05-28T21:28:00.743Z,69.90
2019-05-28T21:30:30.461Z,70.70
2019-05-28T21:33:00.913Z,71.20
2019-05-28T21:35:30.568Z,70.06
2019-05-28T21:38:01.257Z,70.19
2019-05-28T21:40:31.066Z,71.28
2019-05-28T21:43:09.418Z,70.93
2019-05-28T21:45:32.653Z,72.44
2019-05-28T21:48:03.070Z,70.69
2019-05-28T21:50:32.697Z,70.30
2019-05-28T21:53:03.215Z,71.98
2019-05-28T21:55:32.931Z,71.53
2019-05-28T21:58:02.454Z,71.26
2019-05-28T22:00:38.268Z,71.31
2019-05-28T22:03:07.846Z,72.61
2019-05-28T22:05:37.727Z,75.32
2019-05-28T22:08:07.823Z,76.83
2019-05-28T22:10:37.434Z,75.45
2019-05-28T22:13:20.188Z,74.65
2019-05-28T22:15:38.529Z,75.53
2019-05-28T22:18:08.595Z,75.75
2019-05-28T22:20:38.670Z,76.53
2019-05-28T22:23:08.852Z,73.37
2019-05-28T22:25:38.533Z,75.34
2019-05-28T22:28:08.076Z,75.44
2019-05-28T22:30:37.586Z,71.62
2019-05-28T22:33:08.351Z,73.96
2019-05-28T22:35:38.145Z,75.79
2019-05-28T22:38:07.677Z,75.34
2019-05-28T22:40:37.324Z,72.71
2019-05-28T22:43:07.003Z,73.44
2019-05-28T22:45:41.849Z,75.75
2019-05-28T22:48:16.175Z,76.30
2019-05-28T22:50:39.025Z,76.87
2019-05-28T22:53:08.562Z,76.50
2019-05-28T22:55:38.120Z,75.71
2019-05-28T22:58:08.572Z,74.39
2019-05-28T23:00:38.397Z,73.03
2019-05-28T23:03:09.070Z,74.59
2019-05-28T23:05:38.834Z,72.51
2019-05-28T23:08:08.372Z,74.29
2019-05-28T23:10:38.271Z,78.22
2019-05-28T23:13:09.037Z,77.75
2019-05-28T23:15:38.695Z,75.73
2019-05-28T23:18:09.322Z,76.89
2019-05-28T23:20:39.670Z,78.95
2019-05-28T23:23:09.471Z,77.73
2019-05-28T23:25:39.907Z,76.86
2019-05-28T23:28:09.855Z,76.64
2019-05-28T23:30:39.521Z,74.85
2019-05-28T23:33:10.421Z,76.45
2019-05-28T23:35:40.281Z,73.57
2019-05-28T23:38:09.814Z,74.84
2019-05-28T23:40:39.326Z,75.45
2019-05-28T23:43:09.522Z,76.63
2019-05-28T23:45:39.153Z,72.76
2019-05-28T23:48:14.167Z,75.94
2019-05-28T23:50:40.102Z,79.06
2019-05-28T23:53:09.699Z,77.33
2019-05-28T23:55:39.223Z,77.61
2019-05-28T23:58:09.876Z,77.51
